sensor_id;sensor_type;location;lat;lon;timestamp;P1;durP1;ratioP1;P2;durP2;ratioP2
36725;SDS011;44936;52.086;5.150;2022-11-20T01:07:09;12.35;;;4.10;;
36725;SDS011;44936;52.086;5.150;2022-11-20T01:12:55;11.18;;;4.40;;
36725;SDS011;44936;52.086;5.150;2022-11-20T01:15:51;12.45;;;4.45;;
36725;SDS011;44936;52.086;5.150;2022-11-20T01:18:23;9.52;;;3.80;;
36725;SDS011;44936;52.086;5.150;2022-11-20T01:20:54;14.85;;;4.75;;
36725;SDS011;44936;52.086;5.150;2022-11-20T01:27:27;9.65;;;3.47;;
36725;SDS011;44936;52.086;5.150;2022-11-20T01:41:02;9.50;;;3.40;;
36725;SDS011;44936;52.086;5.150;2022-11-20T01:50:42;10.20;;;3.85;;
36725;SDS011;44936;52.086;5.150;2022-11-20T01:53:40;10.73;;;3.70;;
36725;SDS011;44936;52.086;5.150;2022-11-20T02:03:31;10.82;;;3.40;;
36725;SDS011;44936;52.086;5.150;2022-11-20T02:13:57;12.90;;;3.88;;
36725;SDS011;44936;52.086;5.150;2022-11-20T02:16:30;10.85;;;3.47;;
36725;SDS011;44936;52.086;5.150;2022-11-20T02:19:30;6.65;;;3.00;;
36725;SDS011;44936;52.086;5.150;2022-11-20T02:23:01;8.90;;;3.22;;
36725;SDS011;44936;52.086;5.150;2022-11-20T02:26:17;9.23;;;2.92;;
36725;SDS011;44936;52.086;5.150;2022-11-20T02:30:00;9.07;;;2.60;;
36725;SDS011;44936;52.086;5.150;2022-11-20T02:33:20;10.25;;;2.97;;
36725;SDS011;44936;52.086;5.150;2022-11-20T02:36:08;7.03;;;2.45;;
36725;SDS011;44936;52.086;5.150;2022-11-20T02:39:31;10.77;;;2.97;;
36725;SDS011;44936;52.086;5.150;2022-11-20T02:42:18;11.40;;;2.75;;
36725;SDS011;44936;52.086;5.150;2022-11-20T02:45:32;6.35;;;2.67;;
36725;SDS011;44936;52.086;5.150;2022-11-20T02:47:57;12.20;;;3.80;;
36725;SDS011;44936;52.086;5.150;2022-11-20T02:50:48;9.30;;;3.00;;
36725;SDS011;44936;52.086;5.150;2022-11-20T02:53:17;9.02;;;3.50;;
36725;SDS011;44936;52.086;5.150;2022-11-20T02:56:11;7.10;;;2.88;;
36725;SDS011;44936;52.086;5.150;2022-11-20T02:59:00;8.48;;;3.05;;
36725;SDS011;44936;52.086;5.150;2022-11-20T03:01:52;11.50;;;3.40;;
36725;SDS011;44936;52.086;5.150;2022-11-20T03:05:16;7.72;;;3.17;;
36725;SDS011;44936;52.086;5.150;2022-11-20T03:08:02;12.18;;;3.78;;
36725;SDS011;44936;52.086;5.150;2022-11-20T03:10:27;12.55;;;4.25;;
36725;SDS011;44936;52.086;5.150;2022-11-20T03:12:54;9.05;;;3.03;;
36725;SDS011;44936;52.086;5.150;2022-11-20T03:16:20;10.23;;;3.33;;
36725;SDS011;44936;52.086;5.150;2022-11-20T03:19:17;9.13;;;3.35;;
36725;SDS011;44936;52.086;5.150;2022-11-20T03:22:35;9.48;;;3.72;;
36725;SDS011;44936;52.086;5.150;2022-11-20T03:25:01;10.25;;;4.05;;
36725;SDS011;44936;52.086;5.150;2022-11-20T03:28:15;8.95;;;3.33;;
36725;SDS011;44936;52.086;5.150;2022-11-20T03:30:40;10.23;;;3.38;;
36725;SDS011;44936;52.086;5.150;2022-11-20T03:33:31;9.10;;;2.90;;
36725;SDS011;44936;52.086;5.150;2022-11-20T03:36:00;8.90;;;3.33;;
36725;SDS011;44936;52.086;5.150;2022-11-20T03:38:29;9.10;;;3.30;;
36725;SDS011;44936;52.086;5.150;2022-11-20T03:41:27;9.27;;;3.42;;
36725;SDS011;44936;52.086;5.150;2022-11-20T03:44:35;8.93;;;3.03;;
36725;SDS011;44936;52.086;5.150;2022-11-20T03:47:00;8.75;;;2.75;;
36725;SDS011;44936;52.086;5.150;2022-11-20T03:49:26;8.25;;;2.67;;
36725;SDS011;44936;52.086;5.150;2022-11-20T03:51:52;10.30;;;3.72;;
36725;SDS011;44936;52.086;5.150;2022-11-20T03:54:17;9.75;;;3.63;;
36725;SDS011;44936;52.086;5.150;2022-11-20T03:56:43;7.30;;;3.00;;
36725;SDS011;44936;52.086;5.150;2022-11-20T03:59:10;10.48;;;3.30;;
36725;SDS011;44936;52.086;5.150;2022-11-20T04:01:39;7.40;;;2.70;;
36725;SDS011;44936;52.086;5.150;2022-11-20T04:04:25;10.00;;;3.20;;
36725;SDS011;44936;52.086;5.150;2022-11-20T04:06:50;9.80;;;3.00;;
36725;SDS011;44936;52.086;5.150;2022-11-20T04:09:45;10.13;;;3.30;;
36725;SDS011;44936;52.086;5.150;2022-11-20T04:12:11;10.18;;;3.13;;
36725;SDS011;44936;52.086;5.150;2022-11-20T04:14:36;10.93;;;3.40;;
36725;SDS011;44936;52.086;5.150;2022-11-20T04:17:02;9.95;;;2.78;;
36725;SDS011;44936;52.086;5.150;2022-11-20T04:19:31;9.35;;;3.40;;
36725;SDS011;44936;52.086;5.150;2022-11-20T04:21:57;9.18;;;3.17;;
36725;SDS011;44936;52.086;5.150;2022-11-20T04:24:23;7.57;;;2.65;;
36725;SDS011;44936;52.086;5.150;2022-11-20T04:26:48;10.88;;;3.30;;
36725;SDS011;44936;52.086;5.150;2022-11-20T04:29:14;9.00;;;3.53;;
36725;SDS011;44936;52.086;5.150;2022-11-20T04:31:39;8.50;;;3.05;;
36725;SDS011;44936;52.086;5.150;2022-11-20T04:34:10;7.70;;;2.83;;
36725;SDS011;44936;52.086;5.150;2022-11-20T04:36:37;8.90;;;2.95;;
36725;SDS011;44936;52.086;5.150;2022-11-20T04:39:04;8.82;;;3.00;;
36725;SDS011;44936;52.086;5.150;2022-11-20T04:41:32;8.88;;;3.20;;
36725;SDS011;44936;52.086;5.150;2022-11-20T04:44:15;12.20;;;3.10;;
36725;SDS011;44936;52.086;5.150;2022-11-20T04:46:41;11.20;;;3.38;;
36725;SDS011;44936;52.086;5.150;2022-11-20T04:49:12;9.27;;;2.75;;
36725;SDS011;44936;52.086;5.150;2022-11-20T04:51:38;12.60;;;3.17;;
36725;SDS011;44936;52.086;5.150;2022-11-20T04:54:05;10.43;;;3.40;;
36725;SDS011;44936;52.086;5.150;2022-11-20T04:56:30;7.25;;;3.20;;
36725;SDS011;44936;52.086;5.150;2022-11-20T04:59:11;8.32;;;2.88;;
36725;SDS011;44936;52.086;5.150;2022-11-20T05:01:37;8.48;;;3.17;;
36725;SDS011;44936;52.086;5.150;2022-11-20T05:04:05;11.20;;;3.22;;
36725;SDS011;44936;52.086;5.150;2022-11-20T05:06:31;12.00;;;3.92;;
36725;SDS011;44936;52.086;5.150;2022-11-20T05:08:57;9.55;;;3.92;;
36725;SDS011;44936;52.086;5.150;2022-11-20T05:11:22;9.85;;;2.90;;
36725;SDS011;44936;52.086;5.150;2022-11-20T05:13:48;12.68;;;3.08;;
36725;SDS011;44936;52.086;5.150;2022-11-20T05:16:18;10.55;;;4.50;;
36725;SDS011;44936;52.086;5.150;2022-11-20T05:18:45;9.40;;;3.25;;
36725;SDS011;44936;52.086;5.150;2022-11-20T05:21:10;8.63;;;2.65;;
36725;SDS011;44936;52.086;5.150;2022-11-20T05:23:41;5.85;;;2.85;;
36725;SDS011;44936;52.086;5.150;2022-11-20T05:26:20;7.35;;;2.95;;
36725;SDS011;44936;52.086;5.150;2022-11-20T05:28:48;9.50;;;3.67;;
36725;SDS011;44936;52.086;5.150;2022-11-20T05:31:16;8.23;;;3.40;;
36725;SDS011;44936;52.086;5.150;2022-11-20T05:33:45;6.80;;;2.83;;
36725;SDS011;44936;52.086;5.150;2022-11-20T05:36:12;9.02;;;2.90;;
36725;SDS011;44936;52.086;5.150;2022-11-20T05:38:39;11.20;;;3.55;;
36725;SDS011;44936;52.086;5.150;2022-11-20T05:41:12;9.85;;;3.35;;
36725;SDS011;44936;52.086;5.150;2022-11-20T05:43:40;10.05;;;3.60;;
36725;SDS011;44936;52.086;5.150;2022-11-20T05:46:07;9.65;;;3.05;;
36725;SDS011;44936;52.086;5.150;2022-11-20T05:48:35;8.07;;;3.20;;
36725;SDS011;44936;52.086;5.150;2022-11-20T05:51:02;9.13;;;3.17;;
36725;SDS011;44936;52.086;5.150;2022-11-20T05:53:29;10.60;;;3.28;;
36725;SDS011;44936;52.086;5.150;2022-11-20T05:56:02;7.72;;;2.72;;
36725;SDS011;44936;52.086;5.150;2022-11-20T05:58:30;12.40;;;3.45;;
36725;SDS011;44936;52.086;5.150;2022-11-20T06:01:19;7.90;;;2.65;;
36725;SDS011;44936;52.086;5.150;2022-11-20T06:03:47;6.07;;;2.75;;
36725;SDS011;44936;52.086;5.150;2022-11-20T06:06:15;9.85;;;3.17;;
36725;SDS011;44936;52.086;5.150;2022-11-20T06:08:42;8.88;;;3.15;;
36725;SDS011;44936;52.086;5.150;2022-11-20T06:11:09;10.05;;;2.90;;
36725;SDS011;44936;52.086;5.150;2022-11-20T06:13:35;10.60;;;3.10;;
36725;SDS011;44936;52.086;5.150;2022-11-20T06:16:02;13.15;;;3.45;;
36725;SDS011;44936;52.086;5.150;2022-11-20T06:18:28;11.15;;;3.20;;
36725;SDS011;44936;52.086;5.150;2022-11-20T06:21:03;10.80;;;3.33;;
36725;SDS011;44936;52.086;5.150;2022-11-20T06:23:36;9.70;;;3.15;;
36725;SDS011;44936;52.086;5.150;2022-11-20T06:26:06;14.15;;;4.07;;
36725;SDS011;44936;52.086;5.150;2022-11-20T06:28:35;9.30;;;3.05;;
36725;SDS011;44936;52.086;5.150;2022-11-20T06:31:01;10.35;;;3.85;;
36725;SDS011;44936;52.086;5.150;2022-11-20T06:33:28;7.40;;;3.03;;
36725;SDS011;44936;52.086;5.150;2022-11-20T06:35:57;10.52;;;3.58;;
36725;SDS011;44936;52.086;5.150;2022-11-20T06:38:26;6.97;;;2.83;;
36725;SDS011;44936;52.086;5.150;2022-11-20T06:40:52;8.45;;;2.80;;
36725;SDS011;44936;52.086;5.150;2022-11-20T06:43:18;10.05;;;3.17;;
36725;SDS011;44936;52.086;5.150;2022-11-20T06:45:48;12.38;;;3.45;;
36725;SDS011;44936;52.086;5.150;2022-11-20T06:48:20;11.90;;;3.38;;
36725;SDS011;44936;52.086;5.150;2022-11-20T06:50:47;10.25;;;3.75;;
36725;SDS011;44936;52.086;5.150;2022-11-20T06:53:12;9.15;;;3.10;;
36725;SDS011;44936;52.086;5.150;2022-11-20T06:55:43;8.88;;;3.40;;
36725;SDS011;44936;52.086;5.150;2022-11-20T06:58:10;10.73;;;3.25;;
36725;SDS011;44936;52.086;5.150;2022-11-20T07:00:36;7.35;;;2.85;;
36725;SDS011;44936;52.086;5.150;2022-11-20T07:03:05;10.55;;;3.45;;
36725;SDS011;44936;52.086;5.150;2022-11-20T07:05:35;10.63;;;2.95;;
36725;SDS011;44936;52.086;5.150;2022-11-20T07:08:03;17.48;;;3.65;;
36725;SDS011;44936;52.086;5.150;2022-11-20T07:10:30;10.30;;;3.28;;
36725;SDS011;44936;52.086;5.150;2022-11-20T07:12:57;10.20;;;3.17;;
36725;SDS011;44936;52.086;5.150;2022-11-20T07:15:23;10.50;;;2.97;;
36725;SDS011;44936;52.086;5.150;2022-11-20T07:17:50;11.63;;;3.45;;
36725;SDS011;44936;52.086;5.150;2022-11-20T07:20:16;8.45;;;3.33;;
36725;SDS011;44936;52.086;5.150;2022-11-20T07:22:42;10.10;;;3.47;;
36725;SDS011;44936;52.086;5.150;2022-11-20T07:25:08;11.60;;;3.85;;
36725;SDS011;44936;52.086;5.150;2022-11-20T07:27:35;10.38;;;3.40;;
36725;SDS011;44936;52.086;5.150;2022-11-20T07:30:05;11.23;;;3.80;;
36725;SDS011;44936;52.086;5.150;2022-11-20T07:32:31;13.68;;;3.85;;
36725;SDS011;44936;52.086;5.150;2022-11-20T07:34:56;11.90;;;3.47;;
36725;SDS011;44936;52.086;5.150;2022-11-20T07:37:21;10.75;;;3.60;;
36725;SDS011;44936;52.086;5.150;2022-11-20T07:39:47;11.98;;;3.95;;
36725;SDS011;44936;52.086;5.150;2022-11-20T07:42:15;10.48;;;3.33;;
36725;SDS011;44936;52.086;5.150;2022-11-20T07:44:40;12.82;;;3.55;;
36725;SDS011;44936;52.086;5.150;2022-11-20T07:47:06;10.40;;;3.00;;
36725;SDS011;44936;52.086;5.150;2022-11-20T07:49:31;8.02;;;3.10;;
36725;SDS011;44936;52.086;5.150;2022-11-20T07:51:56;10.30;;;3.90;;
36725;SDS011;44936;52.086;5.150;2022-11-20T07:54:22;10.93;;;3.50;;
36725;SDS011;44936;52.086;5.150;2022-11-20T07:56:48;12.18;;;3.40;;
36725;SDS011;44936;52.086;5.150;2022-11-20T07:59:17;14.00;;;3.67;;
36725;SDS011;44936;52.086;5.150;2022-11-20T08:01:51;11.90;;;3.55;;
36725;SDS011;44936;52.086;5.150;2022-11-20T08:04:18;10.55;;;3.95;;
36725;SDS011;44936;52.086;5.150;2022-11-20T08:06:44;8.80;;;3.25;;
36725;SDS011;44936;52.086;5.150;2022-11-20T08:09:10;9.68;;;3.58;;
36725;SDS011;44936;52.086;5.150;2022-11-20T08:11:36;12.50;;;3.60;;
36725;SDS011;44936;52.086;5.150;2022-11-20T08:14:20;13.77;;;3.60;;
36725;SDS011;44936;52.086;5.150;2022-11-20T08:16:53;12.80;;;4.20;;
36725;SDS011;44936;52.086;5.150;2022-11-20T08:19:19;11.82;;;4.22;;
36725;SDS011;44936;52.086;5.150;2022-11-20T08:21:44;15.68;;;3.53;;
36725;SDS011;44936;52.086;5.150;2022-11-20T08:24:10;13.68;;;4.60;;
36725;SDS011;44936;52.086;5.150;2022-11-20T08:26:38;14.05;;;4.63;;
36725;SDS011;44936;52.086;5.150;2022-11-20T08:29:05;13.27;;;4.00;;
36725;SDS011;44936;52.086;5.150;2022-11-20T08:31:30;8.98;;;3.88;;
36725;SDS011;44936;52.086;5.150;2022-11-20T08:33:57;15.52;;;4.40;;
36725;SDS011;44936;52.086;5.150;2022-11-20T08:36:23;12.07;;;4.18;;
36725;SDS011;44936;52.086;5.150;2022-11-20T08:38:49;15.95;;;4.30;;
36725;SDS011;44936;52.086;5.150;2022-11-20T08:41:16;12.52;;;4.45;;
36725;SDS011;44936;52.086;5.150;2022-11-20T08:44:01;13.10;;;3.88;;
36725;SDS011;44936;52.086;5.150;2022-11-20T08:46:32;14.38;;;4.47;;
36725;SDS011;44936;52.086;5.150;2022-11-20T08:49:05;10.48;;;3.80;;
36725;SDS011;44936;52.086;5.150;2022-11-20T08:51:32;12.68;;;3.97;;
36725;SDS011;44936;52.086;5.150;2022-11-20T08:53:57;9.63;;;3.70;;
36725;SDS011;44936;52.086;5.150;2022-11-20T08:56:23;13.90;;;4.60;;
36725;SDS011;44936;52.086;5.150;2022-11-20T08:58:52;13.05;;;4.53;;
36725;SDS011;44936;52.086;5.150;2022-11-20T09:01:28;14.40;;;4.82;;
36725;SDS011;44936;52.086;5.150;2022-11-20T09:04:01;11.75;;;3.70;;
36725;SDS011;44936;52.086;5.150;2022-11-20T09:06:28;14.68;;;4.32;;
36725;SDS011;44936;52.086;5.150;2022-11-20T09:08:54;15.52;;;4.20;;
36725;SDS011;44936;52.086;5.150;2022-11-20T09:11:19;14.20;;;4.65;;
36725;SDS011;44936;52.086;5.150;2022-11-20T09:13:45;15.80;;;4.65;;
36725;SDS011;44936;52.086;5.150;2022-11-20T09:16:13;13.20;;;4.38;;
36725;SDS011;44936;52.086;5.150;2022-11-20T09:18:39;13.85;;;4.88;;
36725;SDS011;44936;52.086;5.150;2022-11-20T09:21:06;13.88;;;4.10;;
36725;SDS011;44936;52.086;5.150;2022-11-20T09:23:35;13.35;;;4.53;;
36725;SDS011;44936;52.086;5.150;2022-11-20T09:26:05;13.63;;;4.60;;
36725;SDS011;44936;52.086;5.150;2022-11-20T09:28:36;15.63;;;4.70;;
36725;SDS011;44936;52.086;5.150;2022-11-20T09:31:24;12.07;;;4.45;;
36725;SDS011;44936;52.086;5.150;2022-11-20T09:33:50;14.68;;;4.65;;
36725;SDS011;44936;52.086;5.150;2022-11-20T09:36:17;13.82;;;4.85;;
36725;SDS011;44936;52.086;5.150;2022-11-20T09:38:46;16.90;;;5.30;;
36725;SDS011;44936;52.086;5.150;2022-11-20T09:47:22;15.95;;;5.32;;
36725;SDS011;44936;52.086;5.150;2022-11-20T09:55:41;14.48;;;5.00;;
36725;SDS011;44936;52.086;5.150;2022-11-20T09:58:10;12.15;;;4.75;;
36725;SDS011;44936;52.086;5.150;2022-11-20T10:01:03;13.10;;;3.90;;
36725;SDS011;44936;52.086;5.150;2022-11-20T10:03:37;12.70;;;4.70;;
36725;SDS011;44936;52.086;5.150;2022-11-20T10:08:45;15.85;;;4.43;;
36725;SDS011;44936;52.086;5.150;2022-11-20T10:11:26;14.27;;;4.90;;
36725;SDS011;44936;52.086;5.150;2022-11-20T10:14:11;14.70;;;4.93;;
36725;SDS011;44936;52.086;5.150;2022-11-20T10:25:15;14.75;;;5.38;;
36725;SDS011;44936;52.086;5.150;2022-11-20T10:31:03;14.98;;;5.45;;
36725;SDS011;44936;52.086;5.150;2022-11-20T10:33:34;16.80;;;6.05;;
36725;SDS011;44936;52.086;5.150;2022-11-20T10:36:22;17.05;;;5.85;;
36725;SDS011;44936;52.086;5.150;2022-11-20T10:39:07;18.45;;;4.72;;
36725;SDS011;44936;52.086;5.150;2022-11-20T10:41:42;20.70;;;5.45;;
36725;SDS011;44936;52.086;5.150;2022-11-20T10:44:17;14.70;;;4.43;;
36725;SDS011;44936;52.086;5.150;2022-11-20T10:47:16;16.45;;;5.00;;
36725;SDS011;44936;52.086;5.150;2022-11-20T10:49:43;14.38;;;5.53;;
36725;SDS011;44936;52.086;5.150;2022-11-20T10:55:30;19.95;;;5.60;;
36725;SDS011;44936;52.086;5.150;2022-11-20T10:58:12;19.38;;;5.35;;
36725;SDS011;44936;52.086;5.150;2022-11-20T11:00:42;18.30;;;5.30;;
36725;SDS011;44936;52.086;5.150;2022-11-20T11:03:26;17.92;;;5.95;;
36725;SDS011;44936;52.086;5.150;2022-11-20T11:05:56;16.25;;;5.70;;
36725;SDS011;44936;52.086;5.150;2022-11-20T11:08:36;20.08;;;5.85;;
36725;SDS011;44936;52.086;5.150;2022-11-20T11:11:12;21.13;;;7.07;;
36725;SDS011;44936;52.086;5.150;2022-11-20T11:16:20;19.23;;;5.90;;
36725;SDS011;44936;52.086;5.150;2022-11-20T11:18:50;20.73;;;5.57;;
36725;SDS011;44936;52.086;5.150;2022-11-20T11:21:29;17.77;;;5.90;;
36725;SDS011;44936;52.086;5.150;2022-11-20T11:24:28;16.38;;;5.93;;
36725;SDS011;44936;52.086;5.150;2022-11-20T11:27:03;18.02;;;6.03;;
36725;SDS011;44936;52.086;5.150;2022-11-20T11:29:42;21.25;;;6.53;;
36725;SDS011;44936;52.086;5.150;2022-11-20T11:32:14;16.75;;;6.45;;
36725;SDS011;44936;52.086;5.150;2022-11-20T11:37:49;19.30;;;5.75;;
36725;SDS011;44936;52.086;5.150;2022-11-20T12:11:53;19.05;;;6.28;;
36725;SDS011;44936;52.086;5.150;2022-11-20T12:14:41;20.88;;;6.60;;
36725;SDS011;44936;52.086;5.150;2022-11-20T12:17:15;21.33;;;7.07;;
36725;SDS011;44936;52.086;5.150;2022-11-20T12:19:45;19.65;;;6.43;;
36725;SDS011;44936;52.086;5.150;2022-11-20T12:25:28;17.75;;;5.88;;
36725;SDS011;44936;52.086;5.150;2022-11-20T12:36:53;20.63;;;6.13;;
36725;SDS011;44936;52.086;5.150;2022-11-20T12:39:48;21.52;;;6.50;;
36725;SDS011;44936;52.086;5.150;2022-11-20T12:42:55;22.60;;;5.88;;
36725;SDS011;44936;52.086;5.150;2022-11-20T12:45:54;22.20;;;6.78;;
36725;SDS011;44936;52.086;5.150;2022-11-20T12:56:58;21.50;;;6.10;;
36725;SDS011;44936;52.086;5.150;2022-11-20T13:08:38;15.15;;;4.13;;
36725;SDS011;44936;52.086;5.150;2022-11-20T13:19:01;17.98;;;5.65;;
36725;SDS011;44936;52.086;5.150;2022-11-20T13:21:36;22.50;;;6.22;;
36725;SDS011;44936;52.086;5.150;2022-11-20T13:24:23;21.85;;;6.13;;
36725;SDS011;44936;52.086;5.150;2022-11-20T13:29:44;20.05;;;5.47;;
36725;SDS011;44936;52.086;5.150;2022-11-20T13:35:59;24.52;;;5.65;;
36725;SDS011;44936;52.086;5.150;2022-11-20T13:38:27;20.90;;;6.60;;
36725;SDS011;44936;52.086;5.150;2022-11-20T13:40:57;18.38;;;6.90;;
36725;SDS011;44936;52.086;5.150;2022-11-20T13:46:02;20.83;;;6.35;;
36725;SDS011;44936;52.086;5.150;2022-11-20T13:48:31;22.88;;;6.25;;
36725;SDS011;44936;52.086;5.150;2022-11-20T13:54:01;25.45;;;5.97;;
36725;SDS011;44936;52.086;5.150;2022-11-20T13:56:46;24.02;;;6.15;;
36725;SDS011;44936;52.086;5.150;2022-11-20T14:02:08;25.52;;;6.55;;
36725;SDS011;44936;52.086;5.150;2022-11-20T14:04:49;21.85;;;6.72;;
36725;SDS011;44936;52.086;5.150;2022-11-20T14:07:20;24.08;;;6.85;;
36725;SDS011;44936;52.086;5.150;2022-11-20T14:09:50;23.83;;;6.70;;
36725;SDS011;44936;52.086;5.150;2022-11-20T14:12:22;23.25;;;6.50;;
36725;SDS011;44936;52.086;5.150;2022-11-20T14:15:22;21.13;;;6.28;;
36725;SDS011;44936;52.086;5.150;2022-11-20T14:17:59;23.77;;;6.38;;
36725;SDS011;44936;52.086;5.150;2022-11-20T14:20:36;25.52;;;7.82;;
36725;SDS011;44936;52.086;5.150;2022-11-20T14:23:27;26.58;;;6.97;;
36725;SDS011;44936;52.086;5.150;2022-11-20T14:26:00;27.45;;;7.10;;
36725;SDS011;44936;52.086;5.150;2022-11-20T14:28:51;20.90;;;6.55;;
36725;SDS011;44936;52.086;5.150;2022-11-20T14:31:25;22.40;;;6.45;;
36725;SDS011;44936;52.086;5.150;2022-11-20T14:33:52;33.38;;;7.88;;
36725;SDS011;44936;52.086;5.150;2022-11-20T14:36:30;25.58;;;8.02;;
36725;SDS011;44936;52.086;5.150;2022-11-20T14:39:07;25.10;;;6.82;;
36725;SDS011;44936;52.086;5.150;2022-11-20T14:41:49;19.48;;;5.55;;
36725;SDS011;44936;52.086;5.150;2022-11-20T14:44:16;26.15;;;7.88;;
36725;SDS011;44936;52.086;5.150;2022-11-20T14:46:44;23.70;;;6.57;;
36725;SDS011;44936;52.086;5.150;2022-11-20T14:49:19;19.98;;;7.40;;
36725;SDS011;44936;52.086;5.150;2022-11-20T14:51:45;21.88;;;7.03;;
36725;SDS011;44936;52.086;5.150;2022-11-20T14:54:15;25.95;;;6.53;;
36725;SDS011;44936;52.086;5.150;2022-11-20T14:56:53;21.23;;;6.70;;
36725;SDS011;44936;52.086;5.150;2022-11-20T14:59:23;25.17;;;7.15;;
36725;SDS011;44936;52.086;5.150;2022-11-20T15:02:10;16.45;;;5.32;;
36725;SDS011;44936;52.086;5.150;2022-11-20T15:04:50;23.27;;;8.43;;
36725;SDS011;44936;52.086;5.150;2022-11-20T15:07:28;25.55;;;7.28;;
36725;SDS011;44936;52.086;5.150;2022-11-20T15:10:07;30.38;;;7.28;;
36725;SDS011;44936;52.086;5.150;2022-11-20T15:12:50;16.83;;;5.10;;
36725;SDS011;44936;52.086;5.150;2022-11-20T15:15:22;24.58;;;5.97;;
36725;SDS011;44936;52.086;5.150;2022-11-20T15:18:12;22.65;;;6.15;;
36725;SDS011;44936;52.086;5.150;2022-11-20T15:20:40;24.90;;;7.38;;
36725;SDS011;44936;52.086;5.150;2022-11-20T15:23:14;23.38;;;5.68;;
36725;SDS011;44936;52.086;5.150;2022-11-20T15:25:43;27.15;;;6.20;;
36725;SDS011;44936;52.086;5.150;2022-11-20T15:31:12;22.48;;;6.90;;
36725;SDS011;44936;52.086;5.150;2022-11-20T15:33:39;26.63;;;7.00;;
36725;SDS011;44936;52.086;5.150;2022-11-20T15:36:14;25.60;;;6.28;;
36725;SDS011;44936;52.086;5.150;2022-11-20T15:38:40;21.70;;;6.90;;
36725;SDS011;44936;52.086;5.150;2022-11-20T15:41:08;19.13;;;6.60;;
36725;SDS011;44936;52.086;5.150;2022-11-20T15:43:38;21.48;;;5.68;;
36725;SDS011;44936;52.086;5.150;2022-11-20T15:46:11;19.40;;;5.75;;
36725;SDS011;44936;52.086;5.150;2022-11-20T15:48:43;18.73;;;5.95;;
36725;SDS011;44936;52.086;5.150;2022-11-20T15:53:39;15.45;;;5.68;;
36725;SDS011;44936;52.086;5.150;2022-11-20T15:56:07;18.92;;;6.50;;
36725;SDS011;44936;52.086;5.150;2022-11-20T15:58:37;16.45;;;5.95;;
36725;SDS011;44936;52.086;5.150;2022-11-20T16:01:02;18.00;;;6.25;;
36725;SDS011;44936;52.086;5.150;2022-11-20T16:03:30;18.38;;;6.00;;
36725;SDS011;44936;52.086;5.150;2022-11-20T16:05:56;20.83;;;6.55;;
36725;SDS011;44936;52.086;5.150;2022-11-20T16:08:21;17.13;;;5.85;;
36725;SDS011;44936;52.086;5.150;2022-11-20T16:10:47;19.98;;;5.50;;
36725;SDS011;44936;52.086;5.150;2022-11-20T16:13:13;15.15;;;5.18;;
36725;SDS011;44936;52.086;5.150;2022-11-20T16:16:02;21.73;;;5.75;;
36725;SDS011;44936;52.086;5.150;2022-11-20T16:18:35;19.67;;;6.07;;
36725;SDS011;44936;52.086;5.150;2022-11-20T16:21:10;19.77;;;5.35;;
36725;SDS011;44936;52.086;5.150;2022-11-20T16:23:41;20.55;;;6.20;;
36725;SDS011;44936;52.086;5.150;2022-11-20T16:26:14;17.73;;;6.55;;
36725;SDS011;44936;52.086;5.150;2022-11-20T16:28:42;18.75;;;5.65;;
36725;SDS011;44936;52.086;5.150;2022-11-20T16:31:11;14.15;;;5.75;;
36725;SDS011;44936;52.086;5.150;2022-11-20T16:33:38;20.13;;;5.80;;
36725;SDS011;44936;52.086;5.150;2022-11-20T16:36:10;17.80;;;5.78;;
36725;SDS011;44936;52.086;5.150;2022-11-20T16:38:43;17.92;;;5.07;;
36725;SDS011;44936;52.086;5.150;2022-11-20T16:41:14;17.73;;;6.13;;
36725;SDS011;44936;52.086;5.150;2022-11-20T16:46:35;16.15;;;5.32;;
36725;SDS011;44936;52.086;5.150;2022-11-20T16:49:06;13.65;;;5.03;;
36725;SDS011;44936;52.086;5.150;2022-11-20T16:51:42;16.92;;;5.72;;
36725;SDS011;44936;52.086;5.150;2022-11-20T16:54:08;16.13;;;5.35;;
36725;SDS011;44936;52.086;5.150;2022-11-20T16:56:37;14.70;;;5.13;;
36725;SDS011;44936;52.086;5.150;2022-11-20T16:59:04;18.25;;;5.65;;
36725;SDS011;44936;52.086;5.150;2022-11-20T17:01:30;17.63;;;5.35;;
36725;SDS011;44936;52.086;5.150;2022-11-20T17:04:01;15.10;;;5.47;;
36725;SDS011;44936;52.086;5.150;2022-11-20T17:06:48;15.55;;;5.03;;
36725;SDS011;44936;52.086;5.150;2022-11-20T17:09:13;17.60;;;5.68;;
36725;SDS011;44936;52.086;5.150;2022-11-20T17:11:42;15.65;;;5.32;;
36725;SDS011;44936;52.086;5.150;2022-11-20T17:14:09;16.88;;;5.25;;
36725;SDS011;44936;52.086;5.150;2022-11-20T17:16:37;14.55;;;5.10;;
36725;SDS011;44936;52.086;5.150;2022-11-20T17:19:03;17.50;;;5.20;;
36725;SDS011;44936;52.086;5.150;2022-11-20T17:21:32;18.80;;;5.65;;
36725;SDS011;44936;52.086;5.150;2022-11-20T17:24:04;16.52;;;5.53;;
36725;SDS011;44936;52.086;5.150;2022-11-20T17:26:34;15.98;;;5.75;;
36725;SDS011;44936;52.086;5.150;2022-11-20T17:29:10;17.25;;;5.35;;
36725;SDS011;44936;52.086;5.150;2022-11-20T17:31:48;13.60;;;5.30;;
36725;SDS011;44936;52.086;5.150;2022-11-20T17:34:18;16.13;;;4.95;;
36725;SDS011;44936;52.086;5.150;2022-11-20T17:36:43;16.33;;;5.50;;
36725;SDS011;44936;52.086;5.150;2022-11-20T17:39:14;12.57;;;5.00;;
36725;SDS011;44936;52.086;5.150;2022-11-20T17:41:41;19.23;;;7.05;;
36725;SDS011;44936;52.086;5.150;2022-11-20T17:44:11;19.17;;;6.97;;
36725;SDS011;44936;52.086;5.150;2022-11-20T17:46:45;19.13;;;6.53;;
36725;SDS011;44936;52.086;5.150;2022-11-20T17:51:58;18.17;;;5.82;;
36725;SDS011;44936;52.086;5.150;2022-11-20T17:54:26;18.63;;;6.57;;
36725;SDS011;44936;52.086;5.150;2022-11-20T17:56:52;15.43;;;5.82;;
36725;SDS011;44936;52.086;5.150;2022-11-20T17:59:37;16.75;;;6.75;;
36725;SDS011;44936;52.086;5.150;2022-11-20T18:02:11;16.17;;;6.45;;
36725;SDS011;44936;52.086;5.150;2022-11-20T18:04:42;15.05;;;5.53;;
36725;SDS011;44936;52.086;5.150;2022-11-20T18:07:10;20.17;;;5.95;;
36725;SDS011;44936;52.086;5.150;2022-11-20T18:09:38;15.88;;;5.75;;
36725;SDS011;44936;52.086;5.150;2022-11-20T18:12:09;20.25;;;6.13;;
36725;SDS011;44936;52.086;5.150;2022-11-20T18:14:37;13.77;;;5.10;;
36725;SDS011;44936;52.086;5.150;2022-11-20T18:17:07;14.75;;;5.47;;
36725;SDS011;44936;52.086;5.150;2022-11-20T18:19:36;15.88;;;6.35;;
36725;SDS011;44936;52.086;5.150;2022-11-20T18:22:03;14.05;;;5.10;;
36725;SDS011;44936;52.086;5.150;2022-11-20T18:24:34;18.05;;;5.30;;
36725;SDS011;44936;52.086;5.150;2022-11-20T18:27:01;20.20;;;6.05;;
36725;SDS011;44936;52.086;5.150;2022-11-20T18:29:33;16.70;;;5.90;;
36725;SDS011;44936;52.086;5.150;2022-11-20T18:32:01;13.43;;;5.55;;
36725;SDS011;44936;52.086;5.150;2022-11-20T18:34:27;13.63;;;5.45;;
36725;SDS011;44936;52.086;5.150;2022-11-20T18:36:56;19.17;;;5.75;;
36725;SDS011;44936;52.086;5.150;2022-11-20T18:39:25;15.77;;;5.43;;
36725;SDS011;44936;52.086;5.150;2022-11-20T18:41:53;18.23;;;5.78;;
36725;SDS011;44936;52.086;5.150;2022-11-20T18:44:48;16.05;;;5.68;;
36725;SDS011;44936;52.086;5.150;2022-11-20T18:47:27;18.48;;;5.78;;
36725;SDS011;44936;52.086;5.150;2022-11-20T18:49:57;15.95;;;5.22;;
36725;SDS011;44936;52.086;5.150;2022-11-20T18:52:32;26.10;;;8.30;;
36725;SDS011;44936;52.086;5.150;2022-11-20T18:54:59;24.17;;;7.97;;
36725;SDS011;44936;52.086;5.150;2022-11-20T18:57:26;25.48;;;7.60;;
36725;SDS011;44936;52.086;5.150;2022-11-20T18:59:58;17.52;;;6.25;;
36725;SDS011;44936;52.086;5.150;2022-11-20T19:02:25;17.75;;;7.32;;
36725;SDS011;44936;52.086;5.150;2022-11-20T19:04:52;18.33;;;6.30;;
36725;SDS011;44936;52.086;5.150;2022-11-20T19:07:18;19.50;;;6.88;;
36725;SDS011;44936;52.086;5.150;2022-11-20T19:09:46;14.90;;;5.45;;
36725;SDS011;44936;52.086;5.150;2022-11-20T19:12:16;17.17;;;5.60;;